Olustee, OK (73560)

4:45 PM CDT on August 27, 2015 (GMT -0500)
NE of Olustee | | Change Station
CLOSE
Current Station
Personal Weather Station
Location: Altus, OK
Elevation: 1368 ft
Nearby Weather Stations

Elev 1368 ft 34.56 °N, 99.38 °W | Updated 7 seconds ago

Clear
Clear
96.4 °F
Feels Like 91 °F
N
9.2
Wind Variable Wind from SE
Gusts 9.8 mph

Today
High -- | Low -- °F
--% Chance of Precip.
Yesterday
High -- | Low -- °F
Precip. -- in
7:07 AM 8:10 PM
Waxing Gibbous, 95% visible
Pressure 29.98 in
Visibility 7.0 miles
Clouds Clear
Heat Index 91 °F
Dew Point 31 °F
Humidity 10%
Rainfall 0.00 in
Snow Depth Not available.
UV 6 out of 12
Pollen 9.10 out of 12
Air Quality Not available.
Flu Activity Not available.
METAR KAXS 272135Z AUTO 19008KT 7SM CLR 37/15 A2998 RMK AO2 T03650148
Pressure 29.98 in
Visibility 7.0 miles
Clouds Clear
Heat Index 91 °F
Dew Point 31 °F
Humidity 10%
Rainfall 0.00 in
Snow Depth Not available.
UV 6 out of 12
Pollen 9.10 out of 12
Air Quality Not available.
Flu Activity Not available.
METAR KAXS 272135Z AUTO 19008KT 7SM CLR 37/15 A2998 RMK AO2 T03650148

10-Day Weather Forecast

×

Almanac

Astronomy

Aug. 27, 2015 Rise Set
Actual Time
Civil Twilight
Nautical Twilight
Astronomical Twilight
Moon
Length of Visible Light
Length of Day
Tomorrow will be .
, % of the Moon is Illuminated

Today's Extremes

State Highs State Lows

Community

WunderPhotos

Upload Photos

1,850,238 photos uploaded!

WunderBlogs® & News

Nearby

Air Quality

  Air Quality AQ Index Pollutant
Not available.

Snow Depth

Station Depth Elevation

Earthquake Activity

City Distance Mag. Time & Date
Minimum magnitude displayed is 2.5.

Coastal Water Temperatures

Place Temperature

Stations

Nearby Weather Stations

Station Location Temp. Windchill Dew Point Humidity Wind Precip. Elev Updated Type